Terminal Aerodrome Forecast
Issued by NWS Sterling, VA

Current Version | Previous Version | Graphics & Text | Print | Product List | Glossary On
Versions: 1 2 3 4 5 6 7 8 9 10 11 12 13 14 15 16 17 18 19 20 21 22
325
FTUS41 KLWX 221457 AAA
TAFIAD
TAF AMD
KIAD 221457Z 2215/2318 26005KT P6SM BKN200
     FM221800 24005KT P6SM SCT070 BKN200
     FM230000 22005KT P6SM VCSH SCT060 SCT200
     FM230400 25005KT P6SM SCT060 SCT200=

USA.gov is the U.S. government's official web portal to all federal, state and local government web resources and services.